sensor_id;sensor_type;location;lat;lon;timestamp;P1;durP1;ratioP1;P2;durP2;ratioP2
16963;SDS011;8598;50.508;10.436;2023-02-28T00:00:29;4.53;;;3.27;;
16963;SDS011;8598;50.508;10.436;2023-02-28T00:02:56;3.40;;;3.10;;
16963;SDS011;8598;50.508;10.436;2023-02-28T00:05:23;3.10;;;2.80;;
16963;SDS011;8598;50.508;10.436;2023-02-28T00:07:52;4.07;;;3.47;;
16963;SDS011;8598;50.508;10.436;2023-02-28T00:10:19;6.93;;;4.27;;
16963;SDS011;8598;50.508;10.436;2023-02-28T00:12:48;6.17;;;3.53;;
16963;SDS011;8598;50.508;10.436;2023-02-28T00:15:15;4.47;;;3.23;;
16963;SDS011;8598;50.508;10.436;2023-02-28T00:17:42;7.67;;;4.10;;
16963;SDS011;8598;50.508;10.436;2023-02-28T00:20:09;6.07;;;3.80;;
16963;SDS011;8598;50.508;10.436;2023-02-28T00:22:38;3.90;;;3.50;;
16963;SDS011;8598;50.508;10.436;2023-02-28T00:25:08;4.40;;;3.60;;
16963;SDS011;8598;50.508;10.436;2023-02-28T00:27:35;6.07;;;3.70;;
16963;SDS011;8598;50.508;10.436;2023-02-28T00:30:03;6.00;;;3.00;;
16963;SDS011;8598;50.508;10.436;2023-02-28T00:32:31;5.20;;;3.47;;
16963;SDS011;8598;50.508;10.436;2023-02-28T00:34:59;6.90;;;2.90;;
16963;SDS011;8598;50.508;10.436;2023-02-28T00:37:26;3.73;;;3.17;;
16963;SDS011;8598;50.508;10.436;2023-02-28T00:39:52;3.00;;;2.70;;
16963;SDS011;8598;50.508;10.436;2023-02-28T00:42:20;3.77;;;3.40;;
16963;SDS011;8598;50.508;10.436;2023-02-28T00:44:47;3.13;;;2.93;;
16963;SDS011;8598;50.508;10.436;2023-02-28T00:47:13;3.93;;;3.07;;
16963;SDS011;8598;50.508;10.436;2023-02-28T00:49:40;3.53;;;2.80;;
16963;SDS011;8598;50.508;10.436;2023-02-28T00:52:07;2.27;;;2.13;;
16963;SDS011;8598;50.508;10.436;2023-02-28T00:54:34;4.20;;;2.90;;
16963;SDS011;8598;50.508;10.436;2023-02-28T00:57:00;4.57;;;2.77;;
16963;SDS011;8598;50.508;10.436;2023-02-28T00:59:28;3.10;;;2.80;;
16963;SDS011;8598;50.508;10.436;2023-02-28T01:01:55;4.30;;;2.90;;
16963;SDS011;8598;50.508;10.436;2023-02-28T01:04:22;3.50;;;2.93;;
16963;SDS011;8598;50.508;10.436;2023-02-28T01:06:48;3.40;;;3.10;;
16963;SDS011;8598;50.508;10.436;2023-02-28T01:09:15;3.73;;;2.87;;
16963;SDS011;8598;50.508;10.436;2023-02-28T01:11:42;3.07;;;2.77;;
16963;SDS011;8598;50.508;10.436;2023-02-28T01:14:10;4.20;;;2.83;;
16963;SDS011;8598;50.508;10.436;2023-02-28T01:16:40;3.53;;;2.97;;
16963;SDS011;8598;50.508;10.436;2023-02-28T01:19:07;3.63;;;2.70;;
16963;SDS011;8598;50.508;10.436;2023-02-28T01:21:33;4.67;;;3.43;;
16963;SDS011;8598;50.508;10.436;2023-02-28T01:24:01;5.63;;;2.80;;
16963;SDS011;8598;50.508;10.436;2023-02-28T01:26:28;2.83;;;2.57;;
16963;SDS011;8598;50.508;10.436;2023-02-28T01:28:55;5.10;;;3.30;;
16963;SDS011;8598;50.508;10.436;2023-02-28T01:31:22;4.20;;;3.00;;
16963;SDS011;8598;50.508;10.436;2023-02-28T01:33:51;4.73;;;2.97;;
16963;SDS011;8598;50.508;10.436;2023-02-28T01:36:19;4.10;;;2.90;;
16963;SDS011;8598;50.508;10.436;2023-02-28T01:38:47;4.20;;;3.80;;
16963;SDS011;8598;50.508;10.436;2023-02-28T01:41:15;3.50;;;3.20;;
16963;SDS011;8598;50.508;10.436;2023-02-28T01:43:53;4.53;;;3.00;;
16963;SDS011;8598;50.508;10.436;2023-02-28T01:46:21;3.43;;;2.90;;
16963;SDS011;8598;50.508;10.436;2023-02-28T01:48:50;4.87;;;3.10;;
16963;SDS011;8598;50.508;10.436;2023-02-28T01:51:23;3.37;;;2.87;;
16963;SDS011;8598;50.508;10.436;2023-02-28T01:53:55;7.80;;;3.20;;
16963;SDS011;8598;50.508;10.436;2023-02-28T01:56:26;3.07;;;2.80;;
16963;SDS011;8598;50.508;10.436;2023-02-28T01:58:56;5.80;;;3.13;;
16963;SDS011;8598;50.508;10.436;2023-02-28T02:01:23;3.53;;;3.20;;
16963;SDS011;8598;50.508;10.436;2023-02-28T02:03:53;3.40;;;3.00;;
16963;SDS011;8598;50.508;10.436;2023-02-28T02:06:22;3.17;;;2.83;;
16963;SDS011;8598;50.508;10.436;2023-02-28T02:08:49;3.80;;;2.73;;
16963;SDS011;8598;50.508;10.436;2023-02-28T02:11:17;3.73;;;2.90;;
16963;SDS011;8598;50.508;10.436;2023-02-28T02:13:53;3.03;;;2.83;;
16963;SDS011;8598;50.508;10.436;2023-02-28T02:16:35;3.20;;;2.90;;
16963;SDS011;8598;50.508;10.436;2023-02-28T02:19:16;5.30;;;2.70;;
16963;SDS011;8598;50.508;10.436;2023-02-28T02:22:09;3.13;;;2.80;;
16963;SDS011;8598;50.508;10.436;2023-02-28T02:24:55;3.83;;;2.93;;
16963;SDS011;8598;50.508;10.436;2023-02-28T02:27:37;4.40;;;3.30;;
16963;SDS011;8598;50.508;10.436;2023-02-28T02:30:28;8.17;;;2.90;;
16963;SDS011;8598;50.508;10.436;2023-02-28T02:36:03;3.20;;;2.90;;
16963;SDS011;8598;50.508;10.436;2023-02-28T02:38:36;3.53;;;3.30;;
16963;SDS011;8598;50.508;10.436;2023-02-28T02:41:12;4.70;;;3.50;;
16963;SDS011;8598;50.508;10.436;2023-02-28T02:43:44;6.90;;;3.30;;
16963;SDS011;8598;50.508;10.436;2023-02-28T02:46:16;3.00;;;2.70;;
16963;SDS011;8598;50.508;10.436;2023-02-28T02:48:46;4.60;;;2.97;;
16963;SDS011;8598;50.508;10.436;2023-02-28T02:51:16;4.97;;;3.80;;
16963;SDS011;8598;50.508;10.436;2023-02-28T02:53:45;4.87;;;3.40;;
16963;SDS011;8598;50.508;10.436;2023-02-28T02:56:16;4.07;;;3.30;;
16963;SDS011;8598;50.508;10.436;2023-02-28T02:58:45;3.63;;;3.27;;
16963;SDS011;8598;50.508;10.436;2023-02-28T03:01:15;3.90;;;3.43;;
16963;SDS011;8598;50.508;10.436;2023-02-28T03:03:53;3.90;;;3.53;;
16963;SDS011;8598;50.508;10.436;2023-02-28T03:06:23;3.47;;;3.17;;
16963;SDS011;8598;50.508;10.436;2023-02-28T03:08:49;3.80;;;3.50;;
16963;SDS011;8598;50.508;10.436;2023-02-28T03:11:16;3.20;;;2.90;;
16963;SDS011;8598;50.508;10.436;2023-02-28T03:13:49;5.17;;;3.63;;
16963;SDS011;8598;50.508;10.436;2023-02-28T03:16:32;4.30;;;3.57;;
16963;SDS011;8598;50.508;10.436;2023-02-28T03:19:09;4.60;;;3.40;;
16963;SDS011;8598;50.508;10.436;2023-02-28T03:21:47;3.73;;;2.90;;
16963;SDS011;8598;50.508;10.436;2023-02-28T03:24:22;4.93;;;3.50;;
16963;SDS011;8598;50.508;10.436;2023-02-28T03:26:57;25.37;;;12.10;;
16963;SDS011;8598;50.508;10.436;2023-02-28T03:29:32;5.00;;;3.93;;
16963;SDS011;8598;50.508;10.436;2023-02-28T03:32:03;6.33;;;4.10;;
16963;SDS011;8598;50.508;10.436;2023-02-28T03:34:39;4.90;;;3.70;;
16963;SDS011;8598;50.508;10.436;2023-02-28T03:37:14;4.00;;;3.60;;
16963;SDS011;8598;50.508;10.436;2023-02-28T03:39:44;3.87;;;3.03;;
16963;SDS011;8598;50.508;10.436;2023-02-28T03:42:14;4.37;;;3.43;;
16963;SDS011;8598;50.508;10.436;2023-02-28T03:44:45;4.43;;;3.30;;
16963;SDS011;8598;50.508;10.436;2023-02-28T03:47:16;4.90;;;3.33;;
16963;SDS011;8598;50.508;10.436;2023-02-28T03:49:49;4.33;;;3.70;;
16963;SDS011;8598;50.508;10.436;2023-02-28T03:52:21;3.83;;;3.43;;
16963;SDS011;8598;50.508;10.436;2023-02-28T03:54:52;4.90;;;3.37;;
16963;SDS011;8598;50.508;10.436;2023-02-28T03:57:23;3.97;;;3.40;;
16963;SDS011;8598;50.508;10.436;2023-02-28T03:59:56;7.43;;;3.73;;
16963;SDS011;8598;50.508;10.436;2023-02-28T04:02:25;4.87;;;3.63;;
16963;SDS011;8598;50.508;10.436;2023-02-28T04:04:53;3.83;;;3.53;;
16963;SDS011;8598;50.508;10.436;2023-02-28T04:07:21;3.80;;;3.50;;
16963;SDS011;8598;50.508;10.436;2023-02-28T04:09:48;4.50;;;3.77;;
16963;SDS011;8598;50.508;10.436;2023-02-28T04:12:14;4.27;;;3.43;;
16963;SDS011;8598;50.508;10.436;2023-02-28T04:14:41;4.97;;;3.60;;
16963;SDS011;8598;50.508;10.436;2023-02-28T04:17:07;6.70;;;4.10;;
16963;SDS011;8598;50.508;10.436;2023-02-28T04:19:34;5.83;;;4.30;;
16963;SDS011;8598;50.508;10.436;2023-02-28T04:22:01;3.67;;;3.33;;
16963;SDS011;8598;50.508;10.436;2023-02-28T04:24:28;6.73;;;3.47;;
16963;SDS011;8598;50.508;10.436;2023-02-28T04:26:56;4.00;;;3.60;;
16963;SDS011;8598;50.508;10.436;2023-02-28T04:29:24;5.30;;;3.73;;
16963;SDS011;8598;50.508;10.436;2023-02-28T04:31:52;4.10;;;3.47;;
16963;SDS011;8598;50.508;10.436;2023-02-28T04:34:19;5.67;;;3.97;;
16963;SDS011;8598;50.508;10.436;2023-02-28T04:36:47;6.13;;;3.77;;
16963;SDS011;8598;50.508;10.436;2023-02-28T04:39:15;3.70;;;3.40;;
16963;SDS011;8598;50.508;10.436;2023-02-28T04:41:44;4.97;;;3.60;;
16963;SDS011;8598;50.508;10.436;2023-02-28T04:44:12;5.63;;;4.27;;
16963;SDS011;8598;50.508;10.436;2023-02-28T04:46:39;6.60;;;4.40;;
16963;SDS011;8598;50.508;10.436;2023-02-28T04:49:05;3.20;;;2.90;;
16963;SDS011;8598;50.508;10.436;2023-02-28T04:51:32;5.93;;;4.13;;
16963;SDS011;8598;50.508;10.436;2023-02-28T04:53:59;5.73;;;4.60;;
16963;SDS011;8598;50.508;10.436;2023-02-28T04:56:26;4.60;;;3.87;;
16963;SDS011;8598;50.508;10.436;2023-02-28T04:58:54;5.00;;;3.47;;
16963;SDS011;8598;50.508;10.436;2023-02-28T05:01:21;6.17;;;4.20;;
16963;SDS011;8598;50.508;10.436;2023-02-28T05:03:51;4.50;;;3.67;;
16963;SDS011;8598;50.508;10.436;2023-02-28T05:06:19;4.70;;;4.17;;
16963;SDS011;8598;50.508;10.436;2023-02-28T05:08:47;4.40;;;4.00;;
16963;SDS011;8598;50.508;10.436;2023-02-28T05:11:15;5.43;;;4.43;;
16963;SDS011;8598;50.508;10.436;2023-02-28T05:13:43;4.40;;;4.00;;
16963;SDS011;8598;50.508;10.436;2023-02-28T05:16:12;18.50;;;10.33;;
16963;SDS011;8598;50.508;10.436;2023-02-28T05:18:39;14.10;;;8.30;;
16963;SDS011;8598;50.508;10.436;2023-02-28T05:21:12;8.80;;;6.27;;
16963;SDS011;8598;50.508;10.436;2023-02-28T05:23:49;14.33;;;6.57;;
16963;SDS011;8598;50.508;10.436;2023-02-28T05:26:16;9.10;;;6.10;;
16963;SDS011;8598;50.508;10.436;2023-02-28T05:28:43;8.37;;;5.30;;
16963;SDS011;8598;50.508;10.436;2023-02-28T05:31:10;6.00;;;5.20;;
16963;SDS011;8598;50.508;10.436;2023-02-28T05:33:38;6.30;;;4.90;;
16963;SDS011;8598;50.508;10.436;2023-02-28T05:36:05;7.70;;;5.07;;
16963;SDS011;8598;50.508;10.436;2023-02-28T05:38:33;8.53;;;5.40;;
16963;SDS011;8598;50.508;10.436;2023-02-28T05:40:59;5.87;;;5.27;;
16963;SDS011;8598;50.508;10.436;2023-02-28T05:43:26;9.83;;;5.50;;
16963;SDS011;8598;50.508;10.436;2023-02-28T05:45:52;8.27;;;5.77;;
16963;SDS011;8598;50.508;10.436;2023-02-28T05:48:19;6.20;;;4.73;;
16963;SDS011;8598;50.508;10.436;2023-02-28T05:50:47;6.77;;;5.80;;
16963;SDS011;8598;50.508;10.436;2023-02-28T05:53:13;6.37;;;4.57;;
16963;SDS011;8598;50.508;10.436;2023-02-28T05:55:40;12.97;;;7.33;;
16963;SDS011;8598;50.508;10.436;2023-02-28T05:58:07;15.53;;;9.37;;
16963;SDS011;8598;50.508;10.436;2023-02-28T06:00:33;22.07;;;9.97;;
16963;SDS011;8598;50.508;10.436;2023-02-28T06:03:00;18.07;;;8.97;;
16963;SDS011;8598;50.508;10.436;2023-02-28T06:05:27;14.40;;;8.30;;
16963;SDS011;8598;50.508;10.436;2023-02-28T06:07:55;16.33;;;8.70;;
16963;SDS011;8598;50.508;10.436;2023-02-28T06:10:22;20.83;;;8.37;;
16963;SDS011;8598;50.508;10.436;2023-02-28T06:12:48;19.07;;;8.97;;
16963;SDS011;8598;50.508;10.436;2023-02-28T06:15:15;34.83;;;16.17;;
16963;SDS011;8598;50.508;10.436;2023-02-28T06:17:43;37.30;;;16.50;;
16963;SDS011;8598;50.508;10.436;2023-02-28T06:20:10;22.63;;;11.57;;
16963;SDS011;8598;50.508;10.436;2023-02-28T06:22:38;23.03;;;12.47;;
16963;SDS011;8598;50.508;10.436;2023-02-28T06:25:06;18.20;;;10.10;;
16963;SDS011;8598;50.508;10.436;2023-02-28T06:27:34;20.67;;;10.40;;
16963;SDS011;8598;50.508;10.436;2023-02-28T06:30:00;17.97;;;9.27;;
16963;SDS011;8598;50.508;10.436;2023-02-28T06:32:28;19.73;;;10.10;;
16963;SDS011;8598;50.508;10.436;2023-02-28T06:34:55;23.97;;;12.77;;
16963;SDS011;8598;50.508;10.436;2023-02-28T06:37:22;13.07;;;6.57;;
16963;SDS011;8598;50.508;10.436;2023-02-28T06:39:51;13.97;;;7.10;;
16963;SDS011;8598;50.508;10.436;2023-02-28T06:42:19;12.87;;;7.00;;
16963;SDS011;8598;50.508;10.436;2023-02-28T06:44:46;10.83;;;6.93;;
16963;SDS011;8598;50.508;10.436;2023-02-28T06:47:13;12.17;;;6.63;;
16963;SDS011;8598;50.508;10.436;2023-02-28T06:49:39;21.80;;;9.97;;
16963;SDS011;8598;50.508;10.436;2023-02-28T06:52:06;18.27;;;9.20;;
16963;SDS011;8598;50.508;10.436;2023-02-28T06:54:33;29.07;;;14.17;;
16963;SDS011;8598;50.508;10.436;2023-02-28T06:57:00;31.30;;;12.60;;
16963;SDS011;8598;50.508;10.436;2023-02-28T06:59:28;27.13;;;12.50;;
16963;SDS011;8598;50.508;10.436;2023-02-28T07:01:54;69.33;;;21.93;;
16963;SDS011;8598;50.508;10.436;2023-02-28T07:04:21;12.23;;;6.83;;
16963;SDS011;8598;50.508;10.436;2023-02-28T07:06:48;25.90;;;11.83;;
16963;SDS011;8598;50.508;10.436;2023-02-28T07:09:15;20.70;;;10.50;;
16963;SDS011;8598;50.508;10.436;2023-02-28T07:11:41;12.73;;;7.80;;
16963;SDS011;8598;50.508;10.436;2023-02-28T07:14:08;9.80;;;6.80;;
16963;SDS011;8598;50.508;10.436;2023-02-28T07:16:36;8.07;;;6.23;;
16963;SDS011;8598;50.508;10.436;2023-02-28T07:19:03;7.53;;;4.90;;
16963;SDS011;8598;50.508;10.436;2023-02-28T07:21:29;8.10;;;5.53;;
16963;SDS011;8598;50.508;10.436;2023-02-28T07:23:56;7.27;;;4.87;;
16963;SDS011;8598;50.508;10.436;2023-02-28T07:26:23;6.80;;;5.00;;
16963;SDS011;8598;50.508;10.436;2023-02-28T07:28:49;10.67;;;7.50;;
16963;SDS011;8598;50.508;10.436;2023-02-28T07:31:16;9.90;;;6.47;;
16963;SDS011;8598;50.508;10.436;2023-02-28T07:33:45;6.40;;;5.67;;
16963;SDS011;8598;50.508;10.436;2023-02-28T07:36:12;7.83;;;6.03;;
16963;SDS011;8598;50.508;10.436;2023-02-28T07:38:42;10.53;;;7.77;;
16963;SDS011;8598;50.508;10.436;2023-02-28T07:41:09;10.23;;;5.90;;
16963;SDS011;8598;50.508;10.436;2023-02-28T07:43:36;8.53;;;5.90;;
16963;SDS011;8598;50.508;10.436;2023-02-28T07:46:03;10.07;;;7.50;;
16963;SDS011;8598;50.508;10.436;2023-02-28T07:48:30;10.10;;;7.00;;
16963;SDS011;8598;50.508;10.436;2023-02-28T07:50:59;9.13;;;6.37;;
16963;SDS011;8598;50.508;10.436;2023-02-28T07:53:26;8.30;;;5.57;;
16963;SDS011;8598;50.508;10.436;2023-02-28T07:55:54;9.90;;;5.50;;
16963;SDS011;8598;50.508;10.436;2023-02-28T07:58:22;7.67;;;5.30;;
16963;SDS011;8598;50.508;10.436;2023-02-28T08:00:49;7.47;;;5.70;;
16963;SDS011;8598;50.508;10.436;2023-02-28T08:03:16;9.13;;;5.10;;
16963;SDS011;8598;50.508;10.436;2023-02-28T08:05:43;5.17;;;3.67;;
16963;SDS011;8598;50.508;10.436;2023-02-28T08:08:11;7.33;;;5.07;;
16963;SDS011;8598;50.508;10.436;2023-02-28T08:10:38;10.43;;;6.17;;
16963;SDS011;8598;50.508;10.436;2023-02-28T08:13:04;7.80;;;4.90;;
16963;SDS011;8598;50.508;10.436;2023-02-28T08:15:31;9.73;;;6.00;;
16963;SDS011;8598;50.508;10.436;2023-02-28T08:17:58;8.57;;;6.43;;
16963;SDS011;8598;50.508;10.436;2023-02-28T08:20:25;8.13;;;5.10;;
16963;SDS011;8598;50.508;10.436;2023-02-28T08:22:52;4.67;;;3.97;;
16963;SDS011;8598;50.508;10.436;2023-02-28T08:25:20;6.67;;;4.87;;
16963;SDS011;8598;50.508;10.436;2023-02-28T08:27:47;8.13;;;5.10;;
16963;SDS011;8598;50.508;10.436;2023-02-28T08:30:16;6.93;;;4.90;;
16963;SDS011;8598;50.508;10.436;2023-02-28T08:32:42;7.47;;;5.27;;
16963;SDS011;8598;50.508;10.436;2023-02-28T08:35:10;6.40;;;4.70;;
16963;SDS011;8598;50.508;10.436;2023-02-28T08:37:36;12.23;;;9.20;;
16963;SDS011;8598;50.508;10.436;2023-02-28T08:40:03;14.20;;;8.57;;
16963;SDS011;8598;50.508;10.436;2023-02-28T08:42:32;6.60;;;5.17;;
16963;SDS011;8598;50.508;10.436;2023-02-28T08:44:59;8.43;;;7.47;;
16963;SDS011;8598;50.508;10.436;2023-02-28T08:47:26;10.07;;;8.07;;
16963;SDS011;8598;50.508;10.436;2023-02-28T08:49:52;6.90;;;5.10;;
16963;SDS011;8598;50.508;10.436;2023-02-28T08:52:19;6.57;;;5.00;;
16963;SDS011;8598;50.508;10.436;2023-02-28T08:54:45;5.60;;;4.57;;
16963;SDS011;8598;50.508;10.436;2023-02-28T08:57:12;6.37;;;4.23;;
16963;SDS011;8598;50.508;10.436;2023-02-28T08:59:40;6.33;;;4.60;;
16963;SDS011;8598;50.508;10.436;2023-02-28T09:02:08;5.57;;;4.60;;
16963;SDS011;8598;50.508;10.436;2023-02-28T09:04:36;6.77;;;4.77;;
16963;SDS011;8598;50.508;10.436;2023-02-28T09:07:02;4.70;;;4.30;;
16963;SDS011;8598;50.508;10.436;2023-02-28T09:09:29;7.20;;;4.27;;
16963;SDS011;8598;50.508;10.436;2023-02-28T09:11:55;5.17;;;4.67;;
16963;SDS011;8598;50.508;10.436;2023-02-28T09:14:22;7.07;;;5.33;;
16963;SDS011;8598;50.508;10.436;2023-02-28T09:16:50;7.50;;;5.13;;
16963;SDS011;8598;50.508;10.436;2023-02-28T09:19:17;5.53;;;4.60;;
16963;SDS011;8598;50.508;10.436;2023-02-28T09:21:43;6.90;;;4.70;;
16963;SDS011;8598;50.508;10.436;2023-02-28T09:24:10;7.00;;;4.63;;
16963;SDS011;8598;50.508;10.436;2023-02-28T09:26:39;8.60;;;5.87;;
16963;SDS011;8598;50.508;10.436;2023-02-28T09:29:06;6.13;;;5.20;;
16963;SDS011;8598;50.508;10.436;2023-02-28T09:31:33;10.27;;;5.97;;
16963;SDS011;8598;50.508;10.436;2023-02-28T09:34:01;5.53;;;3.80;;
16963;SDS011;8598;50.508;10.436;2023-02-28T09:36:27;5.20;;;4.57;;
16963;SDS011;8598;50.508;10.436;2023-02-28T09:38:55;6.33;;;4.13;;
16963;SDS011;8598;50.508;10.436;2023-02-28T09:41:22;6.10;;;4.30;;
16963;SDS011;8598;50.508;10.436;2023-02-28T09:43:53;5.60;;;4.10;;
16963;SDS011;8598;50.508;10.436;2023-02-28T09:46:28;4.97;;;4.10;;
16963;SDS011;8598;50.508;10.436;2023-02-28T09:48:58;5.07;;;3.73;;
16963;SDS011;8598;50.508;10.436;2023-02-28T09:51:33;4.67;;;3.90;;
16963;SDS011;8598;50.508;10.436;2023-02-28T09:54:06;4.77;;;4.30;;
16963;SDS011;8598;50.508;10.436;2023-02-28T09:56:39;7.20;;;4.37;;
16963;SDS011;8598;50.508;10.436;2023-02-28T09:59:10;5.03;;;4.50;;
16963;SDS011;8598;50.508;10.436;2023-02-28T10:01:45;5.93;;;4.20;;
16963;SDS011;8598;50.508;10.436;2023-02-28T10:04:22;5.30;;;4.30;;
16963;SDS011;8598;50.508;10.436;2023-02-28T10:07:01;4.83;;;4.27;;
16963;SDS011;8598;50.508;10.436;2023-02-28T10:09:32;5.07;;;4.27;;
16963;SDS011;8598;50.508;10.436;2023-02-28T10:12:03;7.97;;;5.63;;
16963;SDS011;8598;50.508;10.436;2023-02-28T10:14:32;6.73;;;4.93;;
16963;SDS011;8598;50.508;10.436;2023-02-28T10:17:01;5.23;;;4.20;;
16963;SDS011;8598;50.508;10.436;2023-02-28T10:19:32;5.83;;;4.53;;
16963;SDS011;8598;50.508;10.436;2023-02-28T10:22:03;6.87;;;4.77;;
16963;SDS011;8598;50.508;10.436;2023-02-28T10:24:38;10.97;;;5.10;;
16963;SDS011;8598;50.508;10.436;2023-02-28T10:27:12;6.87;;;4.60;;
16963;SDS011;8598;50.508;10.436;2023-02-28T10:29:42;9.03;;;4.80;;
16963;SDS011;8598;50.508;10.436;2023-02-28T10:32:10;7.73;;;5.07;;
16963;SDS011;8598;50.508;10.436;2023-02-28T10:34:44;7.67;;;4.83;;
16963;SDS011;8598;50.508;10.436;2023-02-28T10:37:11;5.50;;;4.63;;
16963;SDS011;8598;50.508;10.436;2023-02-28T10:39:40;6.20;;;4.20;;
16963;SDS011;8598;50.508;10.436;2023-02-28T10:42:21;10.53;;;7.10;;
16963;SDS011;8598;50.508;10.436;2023-02-28T10:45:04;5.70;;;4.33;;
16963;SDS011;8598;50.508;10.436;2023-02-28T10:47:33;5.23;;;4.53;;
16963;SDS011;8598;50.508;10.436;2023-02-28T10:50:05;5.47;;;4.57;;
16963;SDS011;8598;50.508;10.436;2023-02-28T10:52:36;5.93;;;4.40;;
16963;SDS011;8598;50.508;10.436;2023-02-28T10:55:14;5.60;;;4.70;;
16963;SDS011;8598;50.508;10.436;2023-02-28T10:57:45;6.60;;;5.17;;
16963;SDS011;8598;50.508;10.436;2023-02-28T11:00:15;8.27;;;6.00;;
16963;SDS011;8598;50.508;10.436;2023-02-28T11:02:43;6.03;;;4.67;;
16963;SDS011;8598;50.508;10.436;2023-02-28T11:05:25;5.80;;;4.33;;
16963;SDS011;8598;50.508;10.436;2023-02-28T11:07:54;6.80;;;5.07;;
16963;SDS011;8598;50.508;10.436;2023-02-28T11:10:24;7.37;;;4.60;;
16963;SDS011;8598;50.508;10.436;2023-02-28T11:12:54;7.23;;;5.30;;
16963;SDS011;8598;50.508;10.436;2023-02-28T11:15:23;6.00;;;4.40;;
16963;SDS011;8598;50.508;10.436;2023-02-28T11:17:54;6.57;;;5.23;;
16963;SDS011;8598;50.508;10.436;2023-02-28T11:20:25;4.73;;;4.17;;
16963;SDS011;8598;50.508;10.436;2023-02-28T11:22:54;6.97;;;4.70;;
16963;SDS011;8598;50.508;10.436;2023-02-28T11:25:23;7.23;;;4.87;;
16963;SDS011;8598;50.508;10.436;2023-02-28T11:27:53;7.17;;;4.57;;
16963;SDS011;8598;50.508;10.436;2023-02-28T11:33:21;8.07;;;5.27;;
16963;SDS011;8598;50.508;10.436;2023-02-28T11:35:50;9.70;;;5.37;;
16963;SDS011;8598;50.508;10.436;2023-02-28T11:38:18;8.00;;;5.20;;
16963;SDS011;8598;50.508;10.436;2023-02-28T11:40:46;8.37;;;5.27;;
16963;SDS011;8598;50.508;10.436;2023-02-28T11:43:28;5.17;;;4.57;;
16963;SDS011;8598;50.508;10.436;2023-02-28T11:46:10;9.07;;;5.87;;
16963;SDS011;8598;50.508;10.436;2023-02-28T11:48:46;7.17;;;5.23;;
16963;SDS011;8598;50.508;10.436;2023-02-28T11:51:22;7.43;;;5.40;;
16963;SDS011;8598;50.508;10.436;2023-02-28T11:54:04;4.27;;;3.80;;
16963;SDS011;8598;50.508;10.436;2023-02-28T11:56:39;5.77;;;5.10;;
16963;SDS011;8598;50.508;10.436;2023-02-28T11:59:27;6.70;;;5.07;;
16963;SDS011;8598;50.508;10.436;2023-02-28T12:02:16;5.40;;;4.80;;
16963;SDS011;8598;50.508;10.436;2023-02-28T12:04:52;5.53;;;4.87;;
16963;SDS011;8598;50.508;10.436;2023-02-28T12:07:37;6.03;;;4.20;;
16963;SDS011;8598;50.508;10.436;2023-02-28T12:10:16;7.30;;;5.30;;
16963;SDS011;8598;50.508;10.436;2023-02-28T12:12:49;5.70;;;5.20;;
16963;SDS011;8598;50.508;10.436;2023-02-28T12:15:32;10.60;;;6.20;;
16963;SDS011;8598;50.508;10.436;2023-02-28T12:18:16;8.30;;;4.87;;
16963;SDS011;8598;50.508;10.436;2023-02-28T12:20:53;5.57;;;4.67;;
16963;SDS011;8598;50.508;10.436;2023-02-28T12:23:38;8.27;;;4.93;;
16963;SDS011;8598;50.508;10.436;2023-02-28T12:26:19;8.00;;;5.27;;
16963;SDS011;8598;50.508;10.436;2023-02-28T12:28:57;5.10;;;4.50;;
16963;SDS011;8598;50.508;10.436;2023-02-28T12:31:28;5.57;;;5.00;;
16963;SDS011;8598;50.508;10.436;2023-02-28T12:34:00;6.73;;;4.93;;
16963;SDS011;8598;50.508;10.436;2023-02-28T12:36:32;7.03;;;5.70;;
16963;SDS011;8598;50.508;10.436;2023-02-28T12:39:04;7.70;;;4.97;;
16963;SDS011;8598;50.508;10.436;2023-02-28T12:41:37;5.87;;;4.77;;
16963;SDS011;8598;50.508;10.436;2023-02-28T12:44:07;5.57;;;4.70;;
16963;SDS011;8598;50.508;10.436;2023-02-28T12:46:38;6.97;;;4.80;;
16963;SDS011;8598;50.508;10.436;2023-02-28T12:49:10;5.50;;;4.93;;
16963;SDS011;8598;50.508;10.436;2023-02-28T12:51:39;6.53;;;4.83;;
16963;SDS011;8598;50.508;10.436;2023-02-28T12:54:11;5.20;;;4.70;;
16963;SDS011;8598;50.508;10.436;2023-02-28T12:56:47;5.47;;;4.83;;
16963;SDS011;8598;50.508;10.436;2023-02-28T12:59:22;5.40;;;4.50;;
16963;SDS011;8598;50.508;10.436;2023-02-28T13:02:02;8.27;;;4.57;;
16963;SDS011;8598;50.508;10.436;2023-02-28T13:05:01;6.57;;;5.27;;
16963;SDS011;8598;50.508;10.436;2023-02-28T13:10:46;7.90;;;5.30;;
16963;SDS011;8598;50.508;10.436;2023-02-28T13:13:15;5.93;;;4.87;;
16963;SDS011;8598;50.508;10.436;2023-02-28T13:15:56;6.93;;;5.00;;
16963;SDS011;8598;50.508;10.436;2023-02-28T13:18:30;5.77;;;4.53;;
16963;SDS011;8598;50.508;10.436;2023-02-28T13:21:01;5.57;;;4.07;;
16963;SDS011;8598;50.508;10.436;2023-02-28T13:23:38;5.30;;;4.73;;
16963;SDS011;8598;50.508;10.436;2023-02-28T13:29:28;7.80;;;4.80;;
16963;SDS011;8598;50.508;10.436;2023-02-28T13:38:15;6.27;;;4.67;;
16963;SDS011;8598;50.508;10.436;2023-02-28T13:40:47;6.87;;;4.53;;
16963;SDS011;8598;50.508;10.436;2023-02-28T13:43:16;6.53;;;4.93;;
16963;SDS011;8598;50.508;10.436;2023-02-28T13:48:34;10.40;;;5.83;;
16963;SDS011;8598;50.508;10.436;2023-02-28T13:53:56;6.70;;;4.80;;
16963;SDS011;8598;50.508;10.436;2023-02-28T13:56:33;6.33;;;5.00;;
16963;SDS011;8598;50.508;10.436;2023-02-28T13:59:12;7.27;;;4.73;;
16963;SDS011;8598;50.508;10.436;2023-02-28T14:04:50;6.73;;;4.57;;
16963;SDS011;8598;50.508;10.436;2023-02-28T14:07:27;7.93;;;5.13;;
16963;SDS011;8598;50.508;10.436;2023-02-28T14:09:58;7.80;;;4.83;;
16963;SDS011;8598;50.508;10.436;2023-02-28T14:18:20;7.30;;;5.60;;
16963;SDS011;8598;50.508;10.436;2023-02-28T14:20:52;5.60;;;4.40;;
16963;SDS011;8598;50.508;10.436;2023-02-28T14:23:25;5.93;;;4.97;;
16963;SDS011;8598;50.508;10.436;2023-02-28T14:26:31;10.90;;;4.57;;
16963;SDS011;8598;50.508;10.436;2023-02-28T14:29:34;6.57;;;4.90;;
16963;SDS011;8598;50.508;10.436;2023-02-28T14:32:26;6.33;;;4.90;;
16963;SDS011;8598;50.508;10.436;2023-02-28T14:34:58;8.43;;;5.00;;
16963;SDS011;8598;50.508;10.436;2023-02-28T14:37:37;7.57;;;4.60;;
16963;SDS011;8598;50.508;10.436;2023-02-28T14:40:11;6.10;;;5.00;;
16963;SDS011;8598;50.508;10.436;2023-02-28T14:42:45;7.43;;;4.87;;
16963;SDS011;8598;50.508;10.436;2023-02-28T14:45:17;7.83;;;4.60;;
16963;SDS011;8598;50.508;10.436;2023-02-28T14:47:44;7.93;;;5.57;;
16963;SDS011;8598;50.508;10.436;2023-02-28T14:50:18;8.43;;;5.60;;
16963;SDS011;8598;50.508;10.436;2023-02-28T14:52:46;5.30;;;4.80;;
16963;SDS011;8598;50.508;10.436;2023-02-28T14:55:13;7.40;;;5.03;;
16963;SDS011;8598;50.508;10.436;2023-02-28T14:57:50;7.03;;;5.50;;
16963;SDS011;8598;50.508;10.436;2023-02-28T15:00:21;9.73;;;5.80;;
16963;SDS011;8598;50.508;10.436;2023-02-28T15:02:48;6.87;;;5.30;;
16963;SDS011;8598;50.508;10.436;2023-02-28T15:05:24;9.40;;;5.33;;
16963;SDS011;8598;50.508;10.436;2023-02-28T15:08:06;7.23;;;5.40;;
16963;SDS011;8598;50.508;10.436;2023-02-28T15:10:38;8.40;;;5.27;;
16963;SDS011;8598;50.508;10.436;2023-02-28T15:13:07;6.40;;;4.93;;
16963;SDS011;8598;50.508;10.436;2023-02-28T15:15:42;10.30;;;6.80;;
16963;SDS011;8598;50.508;10.436;2023-02-28T15:18:14;8.47;;;5.87;;
16963;SDS011;8598;50.508;10.436;2023-02-28T15:20:48;7.67;;;5.43;;
16963;SDS011;8598;50.508;10.436;2023-02-28T15:23:16;8.07;;;6.00;;
16963;SDS011;8598;50.508;10.436;2023-02-28T15:25:44;9.80;;;5.30;;
16963;SDS011;8598;50.508;10.436;2023-02-28T15:28:12;9.93;;;5.60;;
16963;SDS011;8598;50.508;10.436;2023-02-28T15:30:49;8.53;;;5.97;;
16963;SDS011;8598;50.508;10.436;2023-02-28T15:33:20;6.63;;;5.57;;
16963;SDS011;8598;50.508;10.436;2023-02-28T15:35:49;8.87;;;5.83;;
16963;SDS011;8598;50.508;10.436;2023-02-28T15:38:17;8.67;;;6.17;;